Crofton, Kentucky
Current Conditions -  °F | °C
As of 3:15 PM on Sunday 23 Nov 2014 (Local Time) from K2I0 Reporting Station
Moderate Rain Moderate Rain  
Wind Chill: 58°   Ceiling: 800
Heat Index: 58°   Visibility: 7mi
Dew Point: 58°   Wind: 8mph
Humidity: 100%   Direction: 140°SE
Pressure: 29.42"   Gusts: NA
Location:  37.05°N, 87.48°W
Report Text: K2I0 232115Z AUTO 14007KT 7SM RA OVC008 15/15 A2942 RMK AO2 P0002 T01470147
Loading
Personal Weather Stations






























Interactive Weather Map New forecast layout! Learn more

10-Day Weather Forecast

Advertisements
Track Severe Weather on mobile